Weather History for La Porte, IN

Change the Weather History Date:

Wednesday, March 13, 2013

  Actual Average (KVPZ) Record (KVPZ)
Temperature  
Mean Temperature 26 °F 37 °F  
Max Temperature 30 °F 45 °F 76 °F (1990)
Min Temperature 22 °F 28 °F 5 °F (1896)
Degree Days  
Heating Degree Days 38 28  
Month to date heating degree days 397  
Since 1 July heating degree days 5129  
Cooling Degree Days 0 0  
Month to date cooling degree days 0  
Year to date cooling degree days 0  
Moisture  
Dew Point 15 °F    
Average Humidity 64    
Maximum Humidity 84    
Minimum Humidity 47    
Precipitation  
Precipitation 0.00 in 0.08 in 2.05 in (1972)
Month to date precipitation 0.97  
Year to date precipitation 4.14  
Sea Level Pressure  
Sea Level Pressure 30.18 in    
Wind  
Wind Speed 11 mph (NW)    
Max Wind Speed 20 mph    
Max Gust Speed 28 mph    
Visibility 8 miles    
Events Snow    
T = Trace of Precipitation, MM = Missing Value Source: NWS Daily Summary

Daily Weather History Graph

Daily Weather History Graph

Search for Another Location

Airport:

Trip Planner

Search our weather history database for the weather conditions in past years. The results will help you decide how hot, cold, wet, or windy it might be!

Date:

Astronomy

Mar. 13, 2013 Rise Set
Actual Time 7:01 AM CDT 6:51 PM CDT
Civil Twilight 6:34 AM CDT 7:19 PM CDT
Nautical Twilight 6:01 AM CDT 7:51 PM CDT
Astronomical Twilight 5:29 AM CDT 8:24 PM CDT
Moon 7:39 AM CDT (3/13) 9:10 PM CDT (3/13)
Length of Visible Light 12h 45m
Length of Day
11h 49m
Waxing Crescent, 4% of the Moon is Illuminated
Mar 13
Waxing Crescent
Mar 19
First Quarter
Mar 27
Full
Apr 2
Last Quarter
Apr 10
New

Hourly Weather History & Observations

Time (CDT) Temp. Windchill Dew Point Humidity Pressure Visibility Wind Dir Wind Speed Gust Speed Precip Events Conditions
12:15 AM 27.5 °F 17.4 °F 20.5 °F 75% 29.98 in 7.0 mi WNW 11.5 mph 20.7 mph N/A Snow Light Snow
12:55 AM 26.4 °F 17.3 °F 22.1 °F 84% 29.98 in 2.5 mi West 9.2 mph 16.1 mph N/A Snow Light Snow
1:15 AM 26.6 °F 16.2 °F 21.2 °F 80% 29.99 in 4.0 mi West 11.5 mph 23.0 mph N/A Snow Light Snow
1:35 AM 26.6 °F 16.2 °F 20.3 °F 77% 29.99 in 7.0 mi West 11.5 mph 19.6 mph N/A Snow Light Snow
1:55 AM 26.2 °F 15.2 °F 20.3 °F 78% 29.99 in 10.0 mi West 12.7 mph 18.4 mph N/A   Overcast
2:15 AM 26.2 °F 17.8 °F 20.1 °F 78% 29.99 in 7.0 mi WNW 8.1 mph 20.7 mph N/A   Overcast
2:35 AM 26.4 °F 16.6 °F 20.3 °F 78% 29.99 in 5.0 mi WNW 10.4 mph 20.7 mph N/A Snow Light Snow
2:55 AM 25.9 °F 16.6 °F 20.8 °F 81% 29.99 in 3.0 mi WNW 9.2 mph 18.4 mph N/A Snow Light Snow
3:15 AM 25.9 °F 16.6 °F 21.0 °F 82% 29.99 in 4.0 mi West 9.2 mph - N/A Snow Light Snow
4:55 AM 25.9 °F 16.6 °F 19.4 °F 76% 30.02 in 7.0 mi WNW 9.2 mph 19.6 mph N/A   Overcast
5:15 AM 25.7 °F 16.4 °F 19.4 °F 77% 30.03 in 5.0 mi WNW 9.2 mph 18.4 mph N/A Snow Light Snow
5:35 AM 25.7 °F 16.4 °F 19.8 °F 78% 30.03 in 3.0 mi WNW 9.2 mph - N/A Snow Light Snow
5:55 AM 25.7 °F 12.3 °F 18.5 °F 74% 30.04 in 7.0 mi NW 18.4 mph 25.3 mph N/A Snow Light Snow
6:15 AM 25.5 °F 13.8 °F 17.2 °F 71% 30.05 in 10.0 mi NW 13.8 mph 18.4 mph N/A   Overcast
6:35 AM 25.3 °F 14.7 °F 15.8 °F 67% 30.06 in 10.0 mi NW 11.5 mph 18.4 mph N/A   Overcast
6:55 AM 25.2 °F 13.3 °F 15.8 °F 68% 30.06 in 10.0 mi NW 13.8 mph 21.9 mph N/A Snow Light Snow
7:15 AM 24.4 °F 12.4 °F 14.4 °F 66% 30.08 in 10.0 mi NW 13.8 mph 24.2 mph N/A   Overcast
7:35 AM 24.3 °F 12.2 °F 13.8 °F 64% 30.09 in 10.0 mi NW 13.8 mph 24.2 mph N/A   Overcast
7:55 AM 23.9 °F 12.3 °F 14.0 °F 66% 30.10 in 10.0 mi NW 12.7 mph 18.4 mph N/A   Overcast
8:15 AM 24.1 °F 13.1 °F 14.0 °F 65% 30.11 in 10.0 mi NW 11.5 mph 23.0 mph N/A Snow Light Snow
8:35 AM 23.9 °F 12.9 °F 14.5 °F 67% 30.11 in 7.0 mi NW 11.5 mph 23.0 mph N/A Snow Light Snow
8:55 AM 23.9 °F 9.5 °F 14.2 °F 66% 30.12 in 7.0 mi NW 19.6 mph 25.3 mph N/A Snow Light Snow
9:15 AM 23.9 °F 11.7 °F 15.3 °F 70% 30.13 in 7.0 mi NW 13.8 mph 23.0 mph N/A Snow Light Snow
9:35 AM 23.7 °F 12.1 °F 15.4 °F 71% 30.14 in 5.0 mi NW 12.7 mph 23.0 mph N/A Snow Light Snow
9:55 AM 23.7 °F 10.1 °F 15.3 °F 70% 30.15 in 4.0 mi NW 17.3 mph 26.5 mph N/A Snow Light Snow
10:15 AM 23.7 °F 13.3 °F 16.2 °F 73% 30.16 in 3.0 mi WNW 10.4 mph 25.3 mph N/A Snow Light Snow
10:35 AM 24.1 °F 14.4 °F 15.4 °F 70% 30.16 in 4.0 mi NW 9.2 mph 19.6 mph N/A Snow Light Snow
10:55 AM 24.4 °F 11.9 °F 14.9 °F 67% 30.17 in 10.0 mi NW 15.0 mph 23.0 mph N/A Snow Light Snow
11:15 AM 24.8 °F 13.4 °F 15.1 °F 67% 30.19 in 7.0 mi NW 12.7 mph 19.6 mph N/A Snow Light Snow
11:35 AM 24.6 °F 13.2 °F 15.6 °F 69% 30.19 in 5.0 mi WNW 12.7 mph 21.9 mph N/A Snow Light Snow
11:55 AM 24.8 °F 14.0 °F 16.5 °F 71% 30.20 in 3.0 mi WNW 11.5 mph 25.3 mph N/A Snow Light Snow
12:15 PM 25.2 °F 11.2 °F 15.1 °F 66% 30.20 in 10.0 mi NW 19.6 mph 26.5 mph N/A Snow Light Snow
12:35 PM 24.8 °F 11.5 °F 15.4 °F 68% 30.21 in 7.0 mi NW 17.3 mph 27.6 mph N/A Snow Light Snow
12:55 PM 25.3 °F 14.7 °F 16.9 °F 70% 30.21 in 5.0 mi NW 11.5 mph 20.7 mph N/A Snow Light Snow
1:15 PM 26.1 °F 13.6 °F 16.2 °F 66% 30.22 in 10.0 mi NW 16.1 mph 21.9 mph N/A   Overcast
1:35 PM 26.6 °F 14.3 °F 14.4 °F 60% 30.22 in 10.0 mi NW 16.1 mph 25.3 mph N/A   Overcast
1:55 PM 27.1 °F 16.4 °F 16.2 °F 63% 30.22 in 10.0 mi WNW 12.7 mph 21.9 mph N/A   Overcast
2:15 PM 28.4 °F 16.2 °F 16.3 °F 61% 30.23 in 10.0 mi NW 17.3 mph 25.3 mph N/A   Mostly Cloudy
2:35 PM 28.4 °F 16.2 °F 16.3 °F 61% 30.23 in 10.0 mi NW 17.3 mph 21.9 mph N/A   Scattered Clouds
2:55 PM 28.6 °F 16.4 °F 16.7 °F 61% 30.23 in 10.0 mi NW 17.3 mph - N/A   Scattered Clouds
3:15 PM 29.5 °F 18.0 °F 15.6 °F 56% 30.24 in 10.0 mi NW 16.1 mph 25.3 mph N/A   Scattered Clouds
3:35 PM 29.3 °F 17.3 °F 15.4 °F 56% 30.25 in 10.0 mi NW 17.3 mph - N/A   Scattered Clouds
3:55 PM 29.8 °F 18.9 °F 15.6 °F 56% 30.25 in 10.0 mi NW 15.0 mph 24.2 mph N/A   Clear
4:15 PM 30.0 °F 19.1 °F 14.0 °F 51% 30.26 in 10.0 mi NW 15.0 mph 23.0 mph N/A   Clear
4:35 PM 30.0 °F 19.1 °F 13.6 °F 51% 30.26 in 10.0 mi NW 15.0 mph 19.6 mph N/A   Clear
4:55 PM 30.2 °F 19.8 °F 12.2 °F 47% 30.27 in 10.0 mi NW 13.8 mph 21.9 mph N/A   Clear
5:15 PM 30.2 °F 19.8 °F 13.1 °F 49% 30.27 in 10.0 mi NW 13.8 mph 19.6 mph N/A   Clear
5:35 PM 30.0 °F 20.5 °F 12.9 °F 49% 30.28 in 10.0 mi NW 11.5 mph 19.6 mph N/A   Clear
5:55 PM 29.5 °F 20.4 °F 12.9 °F 50% 30.28 in 10.0 mi NNW 10.4 mph - N/A   Clear
6:15 PM 29.1 °F 18.9 °F 10.9 °F 47% 30.28 in 10.0 mi NW 12.7 mph - N/A   Clear
6:35 PM 28.4 °F 18.5 °F 10.9 °F 48% 30.28 in 10.0 mi NNW 11.5 mph - N/A   Clear
6:55 PM 27.9 °F 19.8 °F 11.1 °F 50% 30.28 in 10.0 mi NNW 8.1 mph - N/A   Clear
7:15 PM 26.6 °F 20.0 °F 13.1 °F 57% 30.28 in 10.0 mi NW 5.8 mph - N/A   Clear
7:35 PM 27.1 °F 21.8 °F 11.7 °F 52% 30.29 in 10.0 mi WNW 4.6 mph - N/A   Clear
7:55 PM 26.6 °F 22.6 °F 11.8 °F 54% 30.29 in 10.0 mi NW 3.5 mph - N/A   Clear
8:15 PM 26.1 °F 21.9 °F 12.6 °F 57% 30.29 in 10.0 mi NW 3.5 mph - N/A   Clear
8:35 PM 26.6 °F - 12.0 °F 54% 30.29 in 10.0 mi Calm Calm - N/A   Clear
8:55 PM 26.2 °F - 12.0 °F 55% 30.29 in 10.0 mi Calm Calm - N/A   Clear
9:15 PM 26.2 °F - 12.0 °F 55% 30.29 in 10.0 mi Calm Calm - N/A   Clear
9:35 PM 26.2 °F 22.1 °F 12.4 °F 56% 30.30 in 10.0 mi WNW 3.5 mph - N/A   Clear
9:55 PM 25.5 °F 19.9 °F 13.8 °F 61% 30.30 in 10.0 mi West 4.6 mph - N/A   Clear
10:15 PM 24.8 °F 19.1 °F 14.0 °F 64% 30.31 in 10.0 mi West 4.6 mph - N/A   Clear
10:35 PM 25.3 °F 21.1 °F 14.0 °F 62% 30.31 in 10.0 mi West 3.5 mph - N/A   Clear
10:55 PM 25.2 °F 20.9 °F 13.6 °F 62% 30.30 in 10.0 mi West 3.5 mph - N/A   Clear
11:15 PM 24.6 °F 20.3 °F 13.5 °F 63% 30.30 in 10.0 mi West 3.5 mph - N/A   Clear
11:35 PM 23.0 °F 18.4 °F 14.2 °F 69% 30.30 in 10.0 mi West 3.5 mph - N/A   Clear
11:55 PM 22.5 °F 16.3 °F 12.6 °F 66% 30.29 in 10.0 mi WSW 4.6 mph - N/A   Scattered Clouds